createdAt,value
2023-03-28T00:05:03.702Z,1.60
2023-03-28T00:10:08.238Z,1.70
2023-03-28T00:15:12.501Z,1.80
2023-03-28T00:20:17.907Z,1.90
2023-03-28T00:25:21.560Z,2.30
2023-03-28T00:30:27.348Z,1.90
2023-03-28T00:35:32.797Z,1.90
2023-03-28T00:40:39.510Z,1.95
2023-03-28T00:45:43.618Z,1.50
2023-03-28T00:50:49.760Z,2.08
2023-03-28T00:55:58.934Z,1.63
2023-03-28T01:01:03.150Z,1.50
2023-03-28T01:06:10.547Z,1.77
2023-03-28T01:11:15.196Z,1.80
2023-03-28T01:16:22.154Z,2.03
2023-03-28T01:22:06.010Z,1.80
2023-03-28T01:27:15.937Z,1.38
2023-03-28T01:32:57.696Z,1.80
2023-03-28T01:38:08.072Z,1.60
2023-03-28T01:43:33.613Z,1.92
2023-03-28T01:48:44.832Z,1.83
2023-03-28T01:53:58.290Z,1.88
2023-03-28T01:59:08.068Z,1.50
2023-03-28T02:04:20.455Z,1.55
2023-03-28T02:09:27.339Z,1.92
2023-03-28T02:14:38.334Z,1.95
2023-03-28T02:19:44.534Z,1.50
2023-03-28T02:24:49.993Z,1.77
2023-03-28T02:29:54.650Z,1.40
2023-03-28T02:34:58.455Z,1.40
2023-03-28T02:40:16.658Z,1.40
2023-03-28T02:45:48.091Z,1.15
2023-03-28T02:51:03.936Z,1.50
2023-03-28T02:56:16.967Z,1.70
2023-03-28T03:01:21.220Z,1.42
2023-03-28T03:06:24.904Z,1.38
2023-03-28T03:11:30.208Z,1.52
2023-03-28T03:16:34.357Z,1.43
2023-03-28T03:21:38.099Z,1.27
2023-03-28T03:26:43.522Z,1.50
2023-03-28T03:31:47.253Z,1.00
2023-03-28T03:36:50.960Z,1.10
2023-03-28T03:41:56.252Z,1.10
2023-03-28T03:46:59.916Z,1.20
2023-03-28T03:52:03.565Z,1.42
2023-03-28T03:57:08.915Z,1.30
2023-03-28T04:02:12.606Z,1.20
2023-03-28T04:07:16.589Z,1.60
2023-03-28T04:12:21.886Z,1.85
2023-03-28T04:17:25.617Z,1.30
2023-03-28T04:22:29.440Z,1.20
2023-03-28T04:27:34.778Z,1.20
2023-03-28T04:32:38.448Z,1.73
2023-03-28T04:37:42.155Z,1.60
2023-03-28T04:42:47.452Z,1.20
2023-03-28T04:47:51.166Z,0.83
2023-03-28T04:52:54.857Z,1.38
2023-03-28T04:58:00.161Z,1.60
2023-03-28T05:03:04.349Z,1.50
2023-03-28T05:08:08.132Z,1.30
2023-03-28T05:13:13.701Z,1.45
2023-03-28T05:18:17.568Z,1.70
2023-03-28T05:23:21.198Z,1.95
2023-03-28T05:28:26.610Z,1.48
2023-03-28T05:33:30.266Z,1.53
2023-03-28T05:38:33.908Z,1.50
2023-03-28T05:43:39.191Z,1.40
2023-03-28T05:48:42.861Z,1.50
2023-03-28T05:53:53.247Z,1.63
2023-03-28T05:58:58.576Z,1.52
2023-03-28T06:04:02.276Z,1.60
2023-03-28T06:09:05.997Z,1.50
2023-03-28T06:14:11.660Z,1.25
2023-03-28T06:19:18.292Z,1.20
2023-03-28T06:24:22.421Z,1.23
2023-03-28T06:29:27.761Z,1.60
2023-03-28T06:34:31.442Z,1.43
2023-03-28T06:39:35.104Z,1.30
2023-03-28T06:44:40.439Z,1.77
2023-03-28T06:49:44.088Z,1.67
2023-03-28T06:54:48.574Z,1.42
2023-03-28T06:59:53.981Z,1.40
2023-03-28T07:04:57.597Z,1.60
2023-03-28T07:10:01.236Z,1.50
2023-03-28T07:15:07.414Z,1.60
2023-03-28T07:20:11.708Z,1.55
2023-03-28T07:25:15.362Z,1.45
2023-03-28T07:30:20.982Z,1.55
2023-03-28T07:35:24.643Z,1.40
2023-03-28T07:40:28.258Z,1.33
2023-03-28T07:45:34.516Z,1.70
2023-03-28T07:55:54.509Z,2.08
2023-03-28T08:01:06.097Z,1.48
2023-03-28T08:06:28.811Z,2.03
2023-03-28T08:11:35.957Z,1.60
2023-03-28T08:16:41.956Z,1.75
2023-03-28T08:21:45.591Z,1.65
2023-03-28T08:26:49.220Z,1.83
2023-03-28T08:31:54.562Z,1.40
2023-03-28T08:36:58.183Z,1.60
2023-03-28T08:42:33.975Z,1.73
2023-03-28T08:47:48.908Z,1.63
2023-03-28T08:52:53.424Z,1.50
2023-03-28T08:57:58.567Z,1.85
2023-03-28T09:03:10.334Z,1.88
2023-03-28T09:08:42.630Z,1.98
2023-03-28T09:13:57.670Z,1.98
2023-03-28T09:19:14.552Z,2.00
2023-03-28T09:24:35.570Z,1.85
2023-03-28T09:29:42.186Z,1.52
2023-03-28T09:34:51.163Z,1.63
2023-03-28T09:39:57.558Z,1.60
2023-03-28T09:45:08.490Z,2.10
2023-03-28T09:50:17.049Z,2.00
2023-03-28T09:55:24.082Z,1.85
2023-03-28T10:00:28.028Z,1.83
2023-03-28T10:05:38.393Z,1.73
2023-03-28T10:10:42.085Z,1.83
2023-03-28T10:15:47.841Z,1.80
2023-03-28T10:20:53.328Z,1.70
2023-03-28T10:26:02.151Z,1.80
2023-03-28T10:31:06.961Z,1.60
2023-03-28T10:36:24.404Z,1.60
2023-03-28T10:41:29.292Z,1.73
2023-03-28T10:46:35.905Z,1.90
2023-03-28T10:51:43.465Z,1.80
2023-03-28T10:56:50.557Z,2.08
2023-03-28T11:02:11.052Z,2.38
2023-03-28T11:07:23.611Z,1.98
2023-03-28T11:12:54.343Z,2.22
2023-03-28T11:18:12.634Z,2.08
2023-03-28T11:23:42.378Z,2.47
2023-03-28T11:29:02.792Z,1.90
2023-03-28T11:34:14.111Z,2.08
2023-03-28T11:39:27.138Z,2.22
2023-03-28T11:44:34.218Z,2.20
2023-03-28T11:49:41.770Z,3.08
2023-03-28T11:54:50.623Z,2.30
2023-03-28T11:59:59.086Z,2.70
2023-03-28T12:05:10.493Z,2.67
2023-03-28T12:10:21.554Z,2.45
2023-03-28T12:15:33.240Z,2.45
2023-03-28T12:20:40.481Z,2.45
2023-03-28T12:25:52.653Z,3.13
2023-03-28T12:31:04.042Z,2.33
2023-03-28T12:36:16.082Z,2.67
2023-03-28T12:41:24.655Z,2.83
2023-03-28T12:46:33.854Z,2.65
2023-03-28T12:51:40.252Z,2.83
2023-03-28T13:01:51.502Z,3.22
2023-03-28T13:07:05.304Z,2.73
2023-03-28T13:12:26.049Z,2.75
2023-03-28T13:17:31.032Z,3.00
2023-03-28T13:22:39.821Z,3.40
2023-03-28T13:27:45.178Z,3.10
2023-03-28T13:32:51.665Z,2.92
2023-03-28T13:37:55.334Z,2.63
2023-03-28T13:43:01.031Z,3.28
2023-03-28T13:48:13.097Z,3.00
2023-03-28T13:53:17.193Z,2.83
2023-03-28T13:58:24.910Z,2.92
2023-03-28T14:03:28.613Z,2.70
2023-03-28T14:08:32.248Z,3.03
2023-03-28T14:13:39.236Z,3.08
2023-03-28T14:18:46.543Z,3.10
2023-03-28T14:24:01.094Z,2.92
2023-03-28T14:29:10.692Z,2.70
2023-03-28T14:34:21.828Z,2.85
2023-03-28T14:39:26.036Z,2.63
2023-03-28T14:44:36.040Z,3.28
2023-03-28T14:49:39.812Z,3.10
2023-03-28T14:54:47.108Z,2.80
2023-03-28T14:59:53.480Z,2.70
2023-03-28T15:10:10.183Z,2.83
2023-03-28T15:15:23.690Z,2.40
2023-03-28T15:20:31.146Z,2.70
2023-03-28T15:25:36.159Z,2.90
2023-03-28T15:30:46.148Z,2.28
2023-03-28T15:35:49.918Z,2.50
2023-03-28T15:41:08.285Z,2.00
2023-03-28T15:46:15.795Z,2.67
2023-03-28T15:51:20.189Z,2.70
2023-03-28T15:56:27.746Z,2.50
2023-03-28T16:01:34.449Z,2.00
2023-03-28T16:06:42.615Z,2.17
2023-03-28T16:11:47.696Z,2.67
2023-03-28T16:16:56.826Z,2.00
2023-03-28T16:22:01.200Z,2.35
2023-03-28T16:27:05.119Z,1.90
2023-03-28T16:32:12.386Z,2.00
2023-03-28T16:37:16.016Z,1.45
2023-03-28T16:42:19.659Z,1.88
2023-03-28T16:47:25.001Z,1.70
2023-03-28T16:52:29.984Z,1.95
2023-03-28T16:57:33.757Z,2.53
2023-03-28T17:02:39.135Z,1.70
2023-03-28T17:07:42.923Z,1.53
2023-03-28T17:12:46.600Z,1.83
2023-03-28T17:17:51.896Z,1.48
2023-03-28T17:22:55.817Z,1.63
2023-03-28T17:27:59.506Z,1.50
2023-03-28T17:33:04.973Z,1.90
2023-03-28T17:38:08.702Z,1.50
2023-03-28T17:43:12.330Z,1.33
2023-03-28T17:48:17.609Z,1.55
2023-03-28T17:53:21.414Z,1.55
2023-03-28T17:58:25.247Z,0.77
2023-03-28T18:03:30.678Z,0.80
2023-03-28T18:08:34.874Z,0.50
2023-03-28T18:13:39.030Z,0.25
2023-03-28T18:18:44.353Z,0.15
2023-03-28T18:23:48.019Z,0.10
2023-03-28T18:28:51.834Z,0.10
2023-03-28T18:33:58.180Z,0.10
2023-03-28T18:39:02.041Z,0.05
2023-03-28T18:44:05.846Z,0.13
2023-03-28T18:49:12.601Z,0.30
2023-03-28T18:54:16.371Z,0.30
2023-03-28T18:59:19.977Z,0.30
2023-03-28T19:04:25.572Z,0.20
2023-03-28T19:09:29.320Z,0.63
2023-03-28T19:14:32.962Z,0.52
2023-03-28T19:19:38.259Z,0.30
2023-03-28T19:24:41.895Z,0.63
2023-03-28T19:29:45.763Z,0.55
2023-03-28T19:34:52.055Z,0.73
2023-03-28T19:44:58.536Z,1.08
2023-03-28T19:50:03.956Z,1.00
2023-03-28T19:55:08.972Z,1.07
2023-03-28T20:00:13.313Z,0.80
2023-03-28T20:05:18.939Z,1.45
2023-03-28T20:10:22.594Z,2.40
2023-03-28T20:15:26.266Z,2.63
2023-03-28T20:20:31.622Z,2.60
2023-03-28T20:25:35.541Z,2.83
2023-03-28T20:30:39.208Z,2.90
2023-03-28T20:35:51.301Z,2.70
2023-03-28T20:40:54.985Z,2.90
2023-03-28T20:46:00.232Z,3.28
2023-03-28T20:51:07.723Z,2.65
2023-03-28T20:56:12.549Z,3.10
2023-03-28T21:01:16.935Z,3.10
2023-03-28T21:06:23.965Z,3.28
2023-03-28T21:11:29.274Z,3.15
2023-03-28T21:16:33.698Z,2.95
2023-03-28T21:21:39.025Z,3.05
2023-03-28T21:26:42.683Z,2.60
2023-03-28T21:31:46.398Z,3.35
2023-03-28T21:36:51.711Z,3.58
2023-03-28T21:41:55.657Z,3.38
2023-03-28T21:46:59.274Z,2.80
2023-03-28T21:52:04.618Z,3.38
2023-03-28T21:57:08.379Z,3.63
2023-03-28T22:02:12.078Z,3.38
2023-03-28T22:07:17.354Z,2.92
2023-03-28T22:12:21.006Z,2.92
2023-03-28T22:17:24.928Z,3.38
2023-03-28T22:22:30.192Z,3.80
2023-03-28T22:27:33.864Z,3.83
2023-03-28T22:32:37.648Z,3.20
2023-03-28T22:37:43.040Z,3.17
2023-03-28T22:42:46.728Z,3.20
2023-03-28T22:47:50.585Z,3.10
2023-03-28T22:52:57.328Z,3.45
2023-03-28T22:58:00.944Z,3.60
2023-03-28T23:03:04.733Z,3.55
2023-03-28T23:08:11.107Z,3.33
2023-03-28T23:13:14.742Z,3.42
2023-03-28T23:18:18.429Z,4.15
2023-03-28T23:23:23.930Z,3.70
2023-03-28T23:28:27.563Z,3.90
2023-03-28T23:33:31.235Z,3.70
2023-03-28T23:38:36.529Z,4.03
2023-03-28T23:43:40.317Z,3.77
2023-03-28T23:48:43.984Z,3.90
2023-03-28T23:53:49.268Z,3.50
2023-03-28T23:58:53.100Z,3.85
